Nearby METAR Reports

 

EDLW - Dortmund/Wickede, Germany
Distance from station: OSO 17km
Aktuell: 16/10/2019 19:20
geschlossene Wolkendecke
geschlossene Wolkendecke
 Wind aus S
Wind: S 19 km/h
Temperatur: 14°C
Taupunkt: 11°C
Luftfeuchte: 82%
Luftdruck: 1009 hPa
Clouds: geschlossene Wolkendecke
Visibility: 10 km
Cloud details: teilweise bewölkt 488 m
geschlossene Wolkendecke 884 m
2019/10/16 17:20 EDLW 161720Z 19010KT 9999 SCT016 OVC029 14/11 Q1009
EDDL - Duesseldorf, Germany
Distance from station: SW 52km
Aktuell: 16/10/2019 19:20
sehr leichter Niederschlag, geschlossene Wolkendecke
sehr leichter Niederschlag, geschlossene Wolkendecke
 Wind aus SSO
Wind: SSO 19 km/h
Temperatur: 14°C
Taupunkt: 13°C
Luftfeuchte: 94%
Luftdruck: 1009 hPa
Zusammenfassung: sehr leichter Niederschlag
Clouds: geschlossene Wolkendecke
Visibility: 10 km
Cloud details: leicht bewölkt 457 m
stark bewölkt 640 m
geschlossene Wolkendecke 732 m
2019/10/16 17:20 EDDL 161720Z 16010KT 130V190 9999 -RA FEW015 BKN021 OVC024 14/13 Q1009 NOSIG
 
EDDG - Muenster/Osnabru, Germany
Distance from station: NNO 67km
Aktuell: 16/10/2019 19:20
Light drizzle, stark bewölkt
Light drizzle, stark bewölkt
 Wind aus S
Wind: S 13 km/h
Temperatur: 13°C
Taupunkt: 12°C
Luftfeuchte: 94%
Luftdruck: 1008 hPa
Zusammenfassung: Light Drizzle
Clouds: stark bewölkt
Visibility: 5 km
Cloud details: teilweise bewölkt 122 m
stark bewölkt 244 m
2019/10/16 17:20 EDDG 161720Z 17007KT 140V220 5000 -DZ SCT004 BKN008 13/12 Q1008 TEMPO 4000 BKN004
EDLN - Monchengladbach, Germany
Distance from station: WSW 72km
Aktuell: 16/10/2019 19:20
sehr leichter Niederschlag, stark bewölkt
sehr leichter Niederschlag, stark bewölkt
 Wind aus S
Wind: S 13 km/h
Temperatur: 14°C
Taupunkt: 12°C
Luftfeuchte: 88%
Luftdruck: 1008 hPa
Zusammenfassung: sehr leichter Niederschlag
Clouds: stark bewölkt
Visibility: 4 km
Cloud details: teilweise bewölkt 610 m
stark bewölkt 884 m
2019/10/16 17:20 EDLN 161720Z 19007KT 150V250 4000 -RA SCT020 BKN029 14/12 Q1008
 
EDDK - Koeln/Bonn, Germany
Distance from station: SSW 79km
Aktuell: 16/10/2019 19:20
Regen, stark bewölkt
Regen, stark bewölkt
 Wind aus SSO
Wind: SSO 13 km/h
Temperatur: 13°C
Taupunkt: 12°C
Luftfeuchte: 94%
Luftdruck: 1010 hPa
Zusammenfassung: Regen
Clouds: stark bewölkt
Visibility: 9 km
Cloud details: leicht bewölkt 457 m
teilweise bewölkt 853 m
stark bewölkt 1189 m
2019/10/16 17:20 EDDK 161720Z 16007KT 9000 RA FEW015 SCT028 BKN039 13/12 Q1010 BECMG NSW
EDLP - Paderborn/Lippst, Germany
Distance from station: O 85km
Aktuell: 16/10/2019 19:20
stark bewölkt
stark bewölkt
 Wind aus SSW
Wind: SSW 24 km/h
Temperatur: 13°C
Taupunkt: 10°C
Luftfeuchte: 82%
Luftdruck: 1009 hPa
Clouds: stark bewölkt
Visibility: 10 km
Cloud details: leicht bewölkt 1067 m
stark bewölkt 1280 m
2019/10/16 17:20 EDLP 161720Z 20013KT 9999 FEW035 BKN042 13/10 Q1009
 
EDLV - Niederrhein, Germany
Distance from station: W 86km
Aktuell: 16/10/2019 19:20
sehr leichter Niederschlag, stark bewölkt
sehr leichter Niederschlag, stark bewölkt
 Wind aus S
Wind: S 17 km/h
Temperatur: 14°C
Taupunkt: 13°C
Luftfeuchte: 94%
Luftdruck: 1007 hPa
Zusammenfassung: sehr leichter Niederschlag
Clouds: stark bewölkt
Visibility: 10 km
Cloud details: stark bewölkt 213 m
2019/10/16 17:20 EDLV 161720Z 19009KT 9999 -RA BKN007 14/13 Q1007
ETNN - Noervenich (gaf), Germany
Distance from station: SSW 97km
Aktuell: 16/10/2019 19:20
sehr leichter Niederschlag, stark bewölkt
sehr leichter Niederschlag, stark bewölkt
 Wind aus SSW
Wind: SSW 15 km/h
Temperatur: 14°C
Taupunkt: 12°C
Luftfeuchte: 88%
Luftdruck: 1009 hPa
Zusammenfassung: sehr leichter Niederschlag
Clouds: stark bewölkt
Visibility: 10 km
Cloud details: teilweise bewölkt 610 m
stark bewölkt 975 m
2019/10/16 17:20 ETNN 161720Z 20008KT 9999 -RA SCT020 BKN032 14/12 Q1009 BLU BLU TEMPO WHT